createdAt,value
2022-12-12T00:00:22.912Z,0.00
2022-12-12T00:05:19.258Z,0.00
2022-12-12T00:10:13.669Z,-0.10
2022-12-12T00:15:08.753Z,0.00
2022-12-12T00:20:04.914Z,0.00
2022-12-12T00:22:32.346Z,-0.10
2022-12-12T00:24:59.437Z,-0.10
2022-12-12T00:29:54.546Z,-0.10
2022-12-12T00:32:21.601Z,-0.10
2022-12-12T00:34:49.544Z,-0.10
2022-12-12T00:49:34.290Z,-0.20
2022-12-12T00:52:01.324Z,-0.20
2022-12-12T01:21:29.586Z,0.20
2022-12-12T01:26:25.267Z,-0.50
2022-12-12T01:28:53.422Z,-0.60
2022-12-12T01:31:21.350Z,-0.70
2022-12-12T01:36:18.549Z,-0.80
2022-12-12T01:38:47.111Z,-0.80
2022-12-12T01:41:15.055Z,-0.80
2022-12-12T01:46:36.346Z,-0.80
2022-12-12T01:49:19.147Z,-0.80
2022-12-12T01:51:48.016Z,-0.70
2022-12-12T01:54:20.141Z,-0.70
2022-12-12T01:59:19.165Z,-0.70
2022-12-12T02:06:43.640Z,-0.60
2022-12-12T02:09:12.752Z,-0.60
2022-12-12T02:11:46.687Z,-0.60
2022-12-12T02:14:33.604Z,-0.60
2022-12-12T02:17:19.358Z,-0.60
2022-12-12T02:25:35.470Z,-0.60
2022-12-12T02:30:59.716Z,-0.50
2022-12-12T02:33:57.390Z,-0.60
2022-12-12T02:36:43.115Z,-0.60
2022-12-12T02:39:25.489Z,-0.50
2022-12-12T02:42:22.722Z,-0.50
2022-12-12T02:44:58.781Z,-0.40
2022-12-12T02:47:30.577Z,-0.50
2022-12-12T02:50:03.431Z,-0.40
2022-12-12T02:54:57.863Z,-0.40
2022-12-12T02:57:27.057Z,-0.40
2022-12-12T03:00:13.752Z,-0.40
2022-12-12T03:08:34.129Z,-0.40
2022-12-12T03:11:10.899Z,-0.40
2022-12-12T03:13:56.279Z,-0.50
2022-12-12T03:16:49.323Z,-0.50
2022-12-12T03:19:27.191Z,-0.50
2022-12-12T03:22:15.882Z,-0.50
2022-12-12T03:27:16.974Z,-0.60
2022-12-12T03:29:54.545Z,-0.70
2022-12-12T03:32:55.302Z,-0.80
2022-12-12T03:35:50.745Z,-0.70
2022-12-12T03:38:21.552Z,-0.80
2022-12-12T03:40:55.322Z,-1.20
2022-12-12T03:43:29.620Z,-0.80
2022-12-12T03:46:11.799Z,-0.80
2022-12-12T03:48:43.814Z,-0.70
2022-12-12T03:51:37.183Z,-0.70
2022-12-12T03:54:20.059Z,-0.80
2022-12-12T03:56:57.220Z,-0.80
2022-12-12T03:59:36.065Z,-0.70
2022-12-12T04:04:50.965Z,-0.60
2022-12-12T04:07:30.032Z,3.10
2022-12-12T04:13:01.099Z,-0.80
2022-12-12T04:15:58.703Z,-1.00
2022-12-12T04:18:52.565Z,-1.00
2022-12-12T04:21:56.852Z,-1.00
2022-12-12T04:24:43.848Z,-1.10
2022-12-12T04:27:30.668Z,-1.20
2022-12-12T04:30:04.850Z,-1.20
2022-12-12T04:32:43.347Z,-1.10
2022-12-12T04:35:18.345Z,-1.20
2022-12-12T04:37:49.347Z,-1.10
2022-12-12T04:40:22.088Z,-1.10
2022-12-12T04:42:57.016Z,-1.10
2022-12-12T04:45:28.522Z,-1.10
2022-12-12T04:47:58.315Z,-1.10
2022-12-12T04:50:29.199Z,-1.10
2022-12-12T04:52:58.200Z,-1.10
2022-12-12T04:55:39.992Z,-1.20
2022-12-12T04:58:07.551Z,-1.20
2022-12-12T05:00:57.262Z,-1.10
2022-12-12T05:03:32.447Z,-1.60
2022-12-12T05:06:07.839Z,-1.20
2022-12-12T05:08:39.087Z,-1.20
2022-12-12T05:11:07.101Z,-1.20
2022-12-12T05:13:37.045Z,-1.30
2022-12-12T05:16:32.643Z,-1.30
2022-12-12T05:26:26.021Z,-1.30
2022-12-12T05:53:31.555Z,-1.70
2022-12-12T06:45:17.076Z,-1.40
2022-12-12T07:15:01.308Z,-1.80
2022-12-12T07:20:02.435Z,-1.80
2022-12-12T07:25:12.484Z,-1.90
2022-12-12T07:27:44.781Z,-1.90
2022-12-12T07:32:58.002Z,-1.90
2022-12-12T07:37:58.767Z,-1.90
2022-12-12T07:40:35.576Z,-2.00
2022-12-12T07:43:10.416Z,-2.00
2022-12-12T07:45:48.181Z,-2.00
2022-12-12T07:48:21.948Z,-2.00
2022-12-12T07:53:28.045Z,-2.00
2022-12-12T07:56:02.029Z,-2.00
2022-12-12T07:58:58.345Z,-1.90
2022-12-12T08:01:48.090Z,-1.90
2022-12-12T08:12:05.556Z,-1.80
2022-12-12T08:17:45.094Z,-1.70
2022-12-12T08:20:20.761Z,-1.60
2022-12-12T08:25:49.283Z,-1.50
2022-12-12T08:28:30.679Z,-1.50
2022-12-12T08:36:26.911Z,-1.50
2022-12-12T08:42:05.737Z,-1.40
2022-12-12T08:44:52.769Z,-1.30
2022-12-12T08:47:33.924Z,-1.20
2022-12-12T08:50:25.229Z,-1.30
2022-12-12T08:53:05.833Z,-1.20
2022-12-12T08:58:43.044Z,-1.30
2022-12-12T09:01:39.364Z,-1.40
2022-12-12T09:04:11.370Z,-1.50
2022-12-12T09:15:06.889Z,-0.30
2022-12-12T09:20:18.869Z,-1.30
2022-12-12T09:25:41.301Z,-1.20
2022-12-12T09:28:26.480Z,-1.20
2022-12-12T09:36:00.297Z,-1.00
2022-12-12T09:41:00.231Z,-0.90
2022-12-12T09:43:37.078Z,-0.90
2022-12-12T09:46:19.849Z,-0.80
2022-12-12T09:51:17.278Z,-0.80
2022-12-12T09:53:47.205Z,-0.80
2022-12-12T09:56:25.007Z,-0.70
2022-12-12T09:59:11.726Z,-0.60
2022-12-12T10:01:57.478Z,-0.60
2022-12-12T10:05:05.899Z,-0.60
2022-12-12T10:07:53.635Z,-0.60
2022-12-12T10:10:44.438Z,-0.60
2022-12-12T10:13:20.312Z,-0.60
2022-12-12T10:15:59.587Z,-0.60
2022-12-12T10:18:36.734Z,-0.60
2022-12-12T10:21:11.436Z,-0.60
2022-12-12T10:24:07.308Z,-0.80
2022-12-12T10:29:17.885Z,-0.50
2022-12-12T10:31:56.694Z,-0.50
2022-12-12T10:35:14.941Z,-0.50
2022-12-12T10:38:16.700Z,-0.50
2022-12-12T10:43:23.559Z,-0.50
2022-12-12T10:46:21.334Z,-0.40
2022-12-12T10:51:23.756Z,-0.40
2022-12-12T10:56:27.269Z,-0.40
2022-12-12T10:59:02.001Z,-0.30
2022-12-12T11:02:09.178Z,-0.30
2022-12-12T11:04:27.639Z,-0.20
2022-12-12T11:09:33.904Z,-0.20
2022-12-12T11:12:09.890Z,0.10
2022-12-12T11:14:51.908Z,0.00
2022-12-12T11:17:31.093Z,0.00
2022-12-12T11:20:20.752Z,0.00
2022-12-12T11:22:54.711Z,0.00
2022-12-12T11:25:29.713Z,0.00
2022-12-12T11:28:06.915Z,0.00
2022-12-12T11:30:39.064Z,0.10
2022-12-12T11:33:08.998Z,0.10
2022-12-12T11:38:18.261Z,0.20
2022-12-12T11:40:49.807Z,0.20
2022-12-12T11:43:26.538Z,0.20
2022-12-12T11:46:15.297Z,0.20
2022-12-12T11:51:10.453Z,0.30
2022-12-12T11:53:44.324Z,0.30
2022-12-12T11:56:38.105Z,0.30
2022-12-12T11:59:18.785Z,0.40
2022-12-12T12:02:26.318Z,0.50
2022-12-12T12:05:05.269Z,0.50
2022-12-12T12:10:24.424Z,0.60
2022-12-12T12:13:19.467Z,0.80
2022-12-12T12:24:08.158Z,0.70
2022-12-12T12:26:57.196Z,0.80
2022-12-12T12:29:42.996Z,0.80
2022-12-12T12:32:18.869Z,0.70
2022-12-12T12:34:58.872Z,0.60
2022-12-12T12:37:40.321Z,0.70
2022-12-12T12:40:33.431Z,0.70
2022-12-12T12:43:38.726Z,0.70
2022-12-12T12:46:15.282Z,0.80
2022-12-12T12:48:50.168Z,4.50
2022-12-12T12:51:43.122Z,0.80
2022-12-12T12:54:23.068Z,0.70
2022-12-12T12:57:10.010Z,0.80
2022-12-12T12:59:47.264Z,0.80
2022-12-12T13:02:37.307Z,0.80
2022-12-12T13:05:23.821Z,0.90
2022-12-12T13:08:14.406Z,0.90
2022-12-12T13:10:47.496Z,0.90
2022-12-12T13:13:32.751Z,0.90
2022-12-12T13:16:20.380Z,1.00
2022-12-12T13:18:58.335Z,1.30
2022-12-12T13:24:06.297Z,1.00
2022-12-12T13:26:45.979Z,1.00
2022-12-12T13:34:14.868Z,1.00
2022-12-12T13:36:51.989Z,1.00
2022-12-12T13:39:33.893Z,1.10
2022-12-12T13:45:45.400Z,1.00
2022-12-12T13:49:34.448Z,1.00
2022-12-12T13:52:23.044Z,-0.30
2022-12-12T13:54:52.443Z,1.00
2022-12-12T13:57:25.929Z,3.40
2022-12-12T14:02:33.121Z,1.00
2022-12-12T14:05:13.252Z,4.20
2022-12-12T14:07:51.663Z,3.40
2022-12-12T14:10:36.471Z,3.50
2022-12-12T14:13:27.698Z,4.40
2022-12-12T14:19:37.797Z,1.00
2022-12-12T14:24:35.025Z,1.00
2022-12-12T14:27:07.084Z,1.00
2022-12-12T14:29:39.008Z,1.00
2022-12-12T14:32:12.001Z,0.70
2022-12-12T14:34:57.646Z,4.70
2022-12-12T14:37:51.248Z,2.20
2022-12-12T14:43:20.865Z,1.00
2022-12-12T14:45:50.009Z,1.00
2022-12-12T14:48:21.905Z,3.30
2022-12-12T14:53:23.264Z,0.90
2022-12-12T14:56:01.757Z,0.80
2022-12-12T14:58:31.265Z,0.70
2022-12-12T15:01:01.046Z,4.00
2022-12-12T15:03:49.135Z,0.60
2022-12-12T15:06:38.078Z,0.60
2022-12-12T15:09:20.107Z,0.70
2022-12-12T15:11:48.511Z,0.60
2022-12-12T15:14:28.963Z,0.60
2022-12-12T15:19:45.244Z,0.50
2022-12-12T15:22:25.705Z,0.40
2022-12-12T15:24:53.947Z,0.40
2022-12-12T15:27:52.313Z,0.50
2022-12-12T15:30:42.626Z,0.30
2022-12-12T15:33:20.041Z,2.80
2022-12-12T15:35:55.103Z,0.30
2022-12-12T15:40:57.062Z,0.20
2022-12-12T15:43:26.669Z,0.10
2022-12-12T15:45:55.238Z,0.10
2022-12-12T15:50:57.296Z,0.00
2022-12-12T15:54:16.696Z,0.00
2022-12-12T15:56:52.069Z,0.00
2022-12-12T15:59:32.385Z,-0.10
2022-12-12T16:02:26.907Z,-0.10
2022-12-12T16:05:25.967Z,-0.20
2022-12-12T16:10:23.372Z,-0.30
2022-12-12T16:13:03.411Z,-0.30
2022-12-12T16:15:35.082Z,-0.30
2022-12-12T16:18:23.839Z,-0.30
2022-12-12T16:20:54.011Z,-0.30
2022-12-12T16:25:50.377Z,-0.40
2022-12-12T16:28:28.185Z,2.80
2022-12-12T16:31:02.703Z,-0.40
2022-12-12T16:33:33.115Z,-0.40
2022-12-12T16:36:03.029Z,-0.40
2022-12-12T16:41:00.870Z,-0.30
2022-12-12T16:43:27.874Z,2.40
2022-12-12T16:45:56.385Z,-0.10
2022-12-12T16:48:31.813Z,-0.10
2022-12-12T16:51:02.563Z,-0.30
2022-12-12T17:00:53.258Z,-0.60
2022-12-12T17:03:21.513Z,-0.60
2022-12-12T17:08:17.786Z,-0.70
2022-12-12T17:10:46.502Z,-0.70
2022-12-12T17:13:23.692Z,-0.70
2022-12-12T17:15:55.037Z,-0.80
2022-12-12T17:23:29.909Z,-0.90
2022-12-12T17:28:31.969Z,-0.80
2022-12-12T17:33:27.021Z,-0.60
2022-12-12T17:36:03.181Z,-1.00
2022-12-12T17:41:01.979Z,-0.70
2022-12-12T17:43:28.901Z,-1.10
2022-12-12T17:46:01.635Z,1.70
2022-12-12T17:48:30.577Z,-1.00
2022-12-12T17:51:02.658Z,-1.10
2022-12-12T17:53:37.942Z,-1.10
2022-12-12T17:56:12.990Z,-1.30
2022-12-12T17:58:43.585Z,-1.10
2022-12-12T18:01:18.035Z,1.60
2022-12-12T18:06:15.332Z,-1.10
2022-12-12T18:11:19.185Z,-1.10
2022-12-12T18:21:35.918Z,-1.20
2022-12-12T18:29:00.289Z,-1.30
2022-12-12T18:36:24.222Z,-1.20
2022-12-12T18:38:56.423Z,-1.20
2022-12-12T18:46:20.744Z,-1.10
2022-12-12T18:48:48.878Z,-1.00
2022-12-12T18:51:23.418Z,-1.00
2022-12-12T18:53:52.426Z,-0.90
2022-12-12T18:56:25.423Z,-1.00
2022-12-12T18:58:54.428Z,-1.00
2022-12-12T19:01:24.805Z,-1.10
2022-12-12T19:03:54.123Z,-1.10
2022-12-12T19:06:31.694Z,-1.20
2022-12-12T19:21:21.891Z,-1.30
2022-12-12T19:26:26.910Z,-1.30
2022-12-12T19:29:01.661Z,-1.40
2022-12-12T19:33:56.789Z,-1.50
2022-12-12T19:36:25.729Z,-1.60
2022-12-12T19:38:53.588Z,-1.60
2022-12-12T19:41:22.210Z,-1.60
2022-12-12T19:43:50.780Z,-1.70
2022-12-12T19:46:19.360Z,-1.70
2022-12-12T19:51:16.800Z,-1.80
2022-12-12T19:53:46.673Z,-1.80
2022-12-12T19:56:15.809Z,-1.80
2022-12-12T19:58:43.507Z,-1.80
2022-12-12T20:01:19.555Z,-1.90
2022-12-12T20:03:55.015Z,-2.00
2022-12-12T20:11:21.141Z,-1.90
2022-12-12T20:13:54.496Z,-1.80
2022-12-12T20:16:26.840Z,-1.80
2022-12-12T20:18:54.417Z,-2.00
2022-12-12T20:21:59.194Z,-2.00
2022-12-12T20:24:12.504Z,-2.10
2022-12-12T20:29:08.447Z,-2.20
2022-12-12T20:31:40.698Z,-2.20
2022-12-12T20:39:07.991Z,-2.20
2022-12-12T20:41:38.466Z,-2.20
2022-12-12T20:44:07.242Z,-2.30
2022-12-12T20:46:36.987Z,-2.40
2022-12-12T20:49:06.498Z,-2.30
2022-12-12T21:06:44.494Z,-2.30
2022-12-12T21:09:16.199Z,-2.30
2022-12-12T21:19:18.123Z,-2.30
2022-12-12T21:24:14.799Z,-2.20
2022-12-12T21:34:23.622Z,-2.10
2022-12-12T21:36:58.137Z,-2.20
2022-12-12T21:39:27.811Z,-2.10
2022-12-12T21:41:56.041Z,-2.10
2022-12-12T21:49:27.261Z,-2.10
2022-12-12T21:51:56.872Z,-2.20
2022-12-12T21:54:24.978Z,-2.20
2022-12-12T22:06:44.542Z,-2.20
2022-12-12T22:11:50.046Z,-2.20
2022-12-12T22:14:20.645Z,-2.30
2022-12-12T22:19:16.112Z,-2.40
2022-12-12T22:21:47.289Z,-2.40
2022-12-12T22:26:44.386Z,-2.50
2022-12-12T22:29:16.272Z,-2.60
2022-12-12T22:31:44.860Z,-2.60
2022-12-12T22:34:15.697Z,-2.70
2022-12-12T22:36:44.301Z,-3.00
2022-12-12T22:39:23.733Z,-2.80
2022-12-12T22:44:20.134Z,-2.60
2022-12-12T22:46:49.276Z,-2.60
2022-12-12T22:49:20.082Z,-2.60
2022-12-12T22:51:48.117Z,-2.70
2022-12-12T22:56:45.019Z,-2.70
2022-12-12T22:59:13.627Z,-2.80
2022-12-12T23:01:41.506Z,-2.80
2022-12-12T23:04:12.780Z,-2.70
2022-12-12T23:09:15.492Z,-2.70
2022-12-12T23:11:43.823Z,1.00
2022-12-12T23:14:14.795Z,-2.80
2022-12-12T23:19:10.388Z,-2.80
2022-12-12T23:21:38.054Z,-2.70
2022-12-12T23:24:06.534Z,-2.70
2022-12-12T23:26:36.491Z,-2.80
2022-12-12T23:29:05.160Z,-2.80
2022-12-12T23:31:34.706Z,-2.70
2022-12-12T23:34:09.501Z,-2.70
2022-12-12T23:36:36.408Z,-2.70
2022-12-12T23:39:06.302Z,-2.80
2022-12-12T23:41:35.099Z,-2.80
2022-12-12T23:46:29.630Z,-2.90
2022-12-12T23:49:02.929Z,-2.80
2022-12-12T23:51:32.272Z,-2.80
2022-12-12T23:54:00.525Z,-2.80
2022-12-12T23:56:28.574Z,-2.80
2022-12-12T23:58:56.861Z,-2.80
